createdAt,value
2022-10-23T00:00:19.816Z,95.1
2022-10-23T00:03:19.792Z,95.1
2022-10-23T00:06:19.782Z,95.1
2022-10-23T00:09:19.810Z,95.2
2022-10-23T00:12:19.803Z,95.3
2022-10-23T00:15:19.807Z,95.4
2022-10-23T00:18:19.818Z,95.5
2022-10-23T00:21:19.867Z,95.6
2022-10-23T00:24:19.852Z,95.7
2022-10-23T00:27:19.857Z,95.8
2022-10-23T00:30:19.870Z,95.8
2022-10-23T00:33:19.874Z,95.7
2022-10-23T00:36:19.884Z,95.7
2022-10-23T00:39:19.922Z,95.6
2022-10-23T00:42:19.894Z,95.6
2022-10-23T00:45:19.907Z,95.6
2022-10-23T00:48:19.904Z,95.7
2022-10-23T00:51:19.924Z,95.9
2022-10-23T00:54:23.753Z,96
2022-10-23T00:57:20.032Z,96.1
2022-10-23T01:00:19.956Z,96.1
2022-10-23T01:03:19.968Z,96.1
2022-10-23T01:06:19.971Z,96.2
2022-10-23T01:09:19.996Z,96.2
2022-10-23T01:12:19.999Z,96.1
2022-10-23T01:15:20.038Z,96
2022-10-23T01:18:20.034Z,95.8
2022-10-23T01:21:20.046Z,95.7
2022-10-23T01:24:20.067Z,95.6
2022-10-23T01:27:20.066Z,95.6
2022-10-23T01:30:20.069Z,95.6
2022-10-23T01:33:20.102Z,95.6
2022-10-23T01:36:20.098Z,95.6
2022-10-23T01:39:20.106Z,95.7
2022-10-23T01:42:20.109Z,95.7
2022-10-23T01:45:20.129Z,95.7
2022-10-23T01:48:20.139Z,95.7
2022-10-23T01:51:20.181Z,95.7
2022-10-23T01:54:20.181Z,95.7
2022-10-23T01:57:20.177Z,95.8
2022-10-23T02:00:20.182Z,95.9
2022-10-23T02:03:20.202Z,95.9
2022-10-23T02:06:20.205Z,96
2022-10-23T02:09:20.256Z,96
2022-10-23T02:12:20.250Z,96
2022-10-23T02:15:20.243Z,96
2022-10-23T02:18:20.260Z,96
2022-10-23T02:21:20.271Z,95.9
2022-10-23T02:24:20.294Z,95.8
2022-10-23T02:27:20.312Z,95.7
2022-10-23T02:30:20.297Z,95.5
2022-10-23T02:33:20.314Z,95.3
2022-10-23T02:36:20.329Z,95.3
2022-10-23T02:39:20.352Z,95.2
2022-10-23T02:42:20.355Z,95.3
2022-10-23T02:45:20.432Z,95.3
2022-10-23T02:48:20.380Z,95.4
2022-10-23T02:51:20.389Z,95.5
2022-10-23T02:54:20.433Z,95.5
2022-10-23T02:57:20.411Z,95.6
2022-10-23T03:00:20.416Z,95.8
2022-10-23T03:03:20.509Z,96
2022-10-23T03:06:20.445Z,96.2
2022-10-23T03:09:20.471Z,96.4
2022-10-23T03:12:20.478Z,96.6
2022-10-23T03:15:20.492Z,96.7
2022-10-23T03:18:20.500Z,96.8
2022-10-23T03:21:20.531Z,96.9
2022-10-23T03:24:20.537Z,97.1
2022-10-23T03:27:20.567Z,97.1
2022-10-23T03:30:20.553Z,97.2
2022-10-23T03:33:20.570Z,97.1
2022-10-23T03:36:20.577Z,97.1
2022-10-23T03:39:20.626Z,97.1
2022-10-23T03:42:20.604Z,97.2
2022-10-23T03:45:20.619Z,97.2
2022-10-23T03:48:20.637Z,97.2
2022-10-23T03:51:20.649Z,97.2
2022-10-23T03:54:20.664Z,97.2
2022-10-23T03:57:20.691Z,97.2
2022-10-23T04:00:20.683Z,97.2
2022-10-23T04:03:20.697Z,97.2
2022-10-23T04:06:20.708Z,97.3
2022-10-23T04:09:20.736Z,97.3
2022-10-23T04:12:20.727Z,97.2
2022-10-23T04:15:20.769Z,97.1
2022-10-23T04:18:20.757Z,96.9
2022-10-23T04:21:20.776Z,96.8
2022-10-23T04:24:20.799Z,96.9
2022-10-23T04:27:20.806Z,96.9
2022-10-23T04:30:20.818Z,96.8
2022-10-23T04:33:20.863Z,96.6
2022-10-23T04:36:20.849Z,96.5
2022-10-23T04:39:20.862Z,96.6
2022-10-23T04:42:20.926Z,96.7
2022-10-23T04:45:20.866Z,96.8
2022-10-23T04:48:23.273Z,96.9
2022-10-23T04:51:20.892Z,96.9
2022-10-23T04:54:20.886Z,96.9
2022-10-23T04:57:20.876Z,96.9
2022-10-23T05:00:20.908Z,97
2022-10-23T05:03:20.882Z,97.1
2022-10-23T05:06:20.888Z,97.2
2022-10-23T05:09:20.923Z,97.1
2022-10-23T05:12:20.901Z,97.2
2022-10-23T05:15:20.897Z,97.1
2022-10-23T05:18:20.893Z,97.1
2022-10-23T05:21:20.894Z,97.1
2022-10-23T05:24:20.917Z,97
2022-10-23T05:27:20.928Z,97
2022-10-23T05:30:20.902Z,97.1
2022-10-23T05:33:20.907Z,97.1
2022-10-23T05:36:20.909Z,97
2022-10-23T05:39:20.919Z,97.1
2022-10-23T05:42:20.911Z,97.2
2022-10-23T05:45:20.934Z,97.3
2022-10-23T05:48:34.140Z,97.3
2022-10-23T05:51:20.914Z,97.4
2022-10-23T05:54:20.927Z,97.5
2022-10-23T05:57:20.938Z,97.5
2022-10-23T06:00:20.918Z,97.6
2022-10-23T06:03:20.946Z,97.7
2022-10-23T06:06:20.926Z,97.7
2022-10-23T06:09:20.938Z,97.8
2022-10-23T06:12:20.933Z,97.9
2022-10-23T06:15:20.936Z,98
2022-10-23T06:18:20.931Z,98
2022-10-23T06:21:20.958Z,98
2022-10-23T06:24:20.941Z,98.1
2022-10-23T06:27:20.937Z,98.2
2022-10-23T06:30:20.949Z,98.2
2022-10-23T06:33:20.937Z,98.2
2022-10-23T06:36:20.945Z,98.3
2022-10-23T06:39:20.985Z,98.3
2022-10-23T06:42:20.957Z,98.3
2022-10-23T06:45:20.957Z,98.4
2022-10-23T06:48:20.953Z,98.5
2022-10-23T06:51:20.961Z,98.5
2022-10-23T06:54:21.126Z,98.5
2022-10-23T06:57:20.983Z,98.5
2022-10-23T07:00:20.967Z,98.6
2022-10-23T07:03:20.964Z,98.6
2022-10-23T07:06:20.962Z,98.6
2022-10-23T07:09:20.981Z,98.6
2022-10-23T07:12:20.970Z,98.6
2022-10-23T07:15:21.007Z,98.6
2022-10-23T07:18:20.972Z,98.7
2022-10-23T07:21:20.974Z,98.6
2022-10-23T07:24:20.984Z,98.6
2022-10-23T07:27:20.982Z,98.5
2022-10-23T07:30:20.984Z,98.5
2022-10-23T07:33:21.008Z,98.4
2022-10-23T07:36:20.992Z,98.3
2022-10-23T07:39:21.009Z,98.1
2022-10-23T07:42:20.996Z,98
2022-10-23T07:45:20.994Z,97.7
2022-10-23T07:48:21.003Z,97.2
2022-10-23T07:51:21.021Z,96.1
2022-10-23T07:54:21.198Z,94.2
2022-10-23T07:57:21.005Z,92.2
2022-10-23T08:00:21.038Z,90.9
2022-10-23T08:03:21.004Z,89.7
2022-10-23T08:06:21.010Z,88.4
2022-10-23T08:09:21.044Z,87.7
2022-10-23T08:12:21.005Z,86.8
2022-10-23T08:15:21.005Z,86
2022-10-23T08:18:21.013Z,85.3
2022-10-23T08:21:21.014Z,84.9
2022-10-23T08:24:21.020Z,84.9
2022-10-23T08:27:21.049Z,85
2022-10-23T08:30:21.035Z,85.1
2022-10-23T08:33:21.017Z,85.4
2022-10-23T08:36:21.023Z,85.7
2022-10-23T08:39:21.038Z,85.8
2022-10-23T08:42:21.051Z,86.1
2022-10-23T08:45:21.051Z,85.9
2022-10-23T08:48:21.028Z,85.7
2022-10-23T08:51:21.091Z,85.6
2022-10-23T08:54:21.054Z,85.3
2022-10-23T08:57:21.033Z,84.9
2022-10-23T09:00:21.158Z,84.8
2022-10-23T09:03:21.066Z,84.5
2022-10-23T09:06:21.038Z,84.1
2022-10-23T09:09:21.055Z,83.7
2022-10-23T09:12:21.034Z,83.7
2022-10-23T09:15:21.042Z,83.3
2022-10-23T09:18:21.042Z,83
2022-10-23T09:21:21.069Z,82.5
2022-10-23T09:24:21.051Z,82.3
2022-10-23T09:27:21.053Z,82.2
2022-10-23T09:30:21.047Z,82.5
2022-10-23T09:33:21.054Z,82.7
2022-10-23T09:36:21.063Z,82.8
2022-10-23T09:39:21.093Z,82.8
2022-10-23T09:42:21.064Z,82.5
2022-10-23T09:45:21.070Z,82.5
2022-10-23T09:48:21.069Z,82.3
2022-10-23T09:51:21.069Z,81.9
2022-10-23T09:54:21.093Z,81.8
2022-10-23T09:57:21.100Z,81.4
2022-10-23T10:00:21.080Z,81.3
2022-10-23T10:03:21.078Z,81
2022-10-23T10:06:21.083Z,80.5
2022-10-23T10:09:21.091Z,79.6
2022-10-23T10:12:21.084Z,78.7
2022-10-23T10:15:21.111Z,77.1
2022-10-23T10:18:21.088Z,76.5
2022-10-23T10:21:21.089Z,76.6
2022-10-23T10:24:21.108Z,76.2
2022-10-23T10:27:21.100Z,76.4
2022-10-23T10:30:21.098Z,76.9
2022-10-23T10:33:21.120Z,77.2
2022-10-23T10:36:21.159Z,77.3
2022-10-23T10:39:21.115Z,77.1
2022-10-23T10:42:21.141Z,77.3
2022-10-23T10:45:21.107Z,77.5
2022-10-23T10:48:21.192Z,77.9
2022-10-23T10:51:21.176Z,78.2
2022-10-23T10:54:21.199Z,78
2022-10-23T10:57:21.186Z,78.1
2022-10-23T11:00:21.192Z,78.1
2022-10-23T11:03:21.197Z,78.1
2022-10-23T11:06:21.200Z,78.1
2022-10-23T11:09:21.346Z,78
2022-10-23T11:12:21.198Z,78
2022-10-23T11:15:21.204Z,78
2022-10-23T11:18:21.200Z,78.4
2022-10-23T11:21:21.199Z,78.4
2022-10-23T11:24:21.202Z,78.3
2022-10-23T11:27:21.229Z,78.2
2022-10-23T11:30:21.210Z,78
2022-10-23T11:33:21.211Z,77.9
2022-10-23T11:36:21.213Z,77.7
2022-10-23T11:39:21.214Z,77.7
2022-10-23T11:42:21.218Z,76.8
2022-10-23T11:45:21.243Z,76.7
2022-10-23T11:48:21.221Z,76.3
2022-10-23T11:51:21.224Z,76.6
2022-10-23T11:54:21.228Z,76.2
2022-10-23T11:57:21.342Z,75.6
2022-10-23T12:00:21.229Z,76
2022-10-23T12:03:21.261Z,76
2022-10-23T12:06:21.232Z,76.2
2022-10-23T12:09:21.233Z,75.9
2022-10-23T12:12:21.233Z,75.4
2022-10-23T12:15:21.230Z,75.1
2022-10-23T12:18:21.238Z,74.5
2022-10-23T12:21:21.257Z,73.8
2022-10-23T12:24:21.235Z,73.3
2022-10-23T12:27:21.240Z,73.1
2022-10-23T12:30:21.241Z,73.6
2022-10-23T12:33:21.245Z,73.5
2022-10-23T12:36:21.238Z,73.5
2022-10-23T12:39:21.269Z,73.4
2022-10-23T12:42:21.252Z,73.8
2022-10-23T12:45:21.253Z,73.7
2022-10-23T12:48:21.261Z,73.9
2022-10-23T12:51:21.257Z,73.6
2022-10-23T12:54:21.260Z,73.5
2022-10-23T12:57:21.292Z,73.5
2022-10-23T13:00:21.280Z,73.9
2022-10-23T13:03:21.273Z,73.2
2022-10-23T13:06:21.276Z,73.5
2022-10-23T13:09:21.270Z,72.7
2022-10-23T13:12:21.276Z,71.6
2022-10-23T13:15:21.304Z,71
2022-10-23T13:18:21.286Z,71.8
2022-10-23T13:21:21.295Z,72.1
2022-10-23T13:24:21.291Z,72.1
2022-10-23T13:27:21.297Z,72.2
2022-10-23T13:30:21.301Z,72.5
2022-10-23T13:33:21.341Z,72.6
2022-10-23T13:36:21.307Z,73.2
2022-10-23T13:39:21.314Z,73.4
2022-10-23T13:42:21.313Z,73.3
2022-10-23T13:45:21.313Z,73.7
2022-10-23T13:48:21.326Z,74.3
2022-10-23T13:51:21.355Z,74.9
2022-10-23T13:54:21.384Z,75.3
2022-10-23T13:57:21.333Z,75.7
2022-10-23T14:00:21.349Z,76.2
2022-10-23T14:03:21.345Z,76.5
2022-10-23T14:06:21.344Z,77
2022-10-23T14:09:21.373Z,77.1
2022-10-23T14:12:21.373Z,77.4
2022-10-23T14:15:21.354Z,77.5
2022-10-23T14:18:21.362Z,77.7
2022-10-23T14:21:21.368Z,77.9
2022-10-23T14:24:21.366Z,78.1
2022-10-23T14:27:21.400Z,78.2
2022-10-23T14:30:21.380Z,78.2
2022-10-23T14:33:21.382Z,78.3
2022-10-23T14:36:21.391Z,78.7
2022-10-23T14:39:21.389Z,78.9
2022-10-23T14:42:21.400Z,79.4
2022-10-23T14:45:21.426Z,79.7
2022-10-23T14:48:21.405Z,80.1
2022-10-23T14:51:21.408Z,80.5
2022-10-23T14:54:21.414Z,80.7
2022-10-23T14:57:21.421Z,80.9
2022-10-23T15:00:21.425Z,81.2
2022-10-23T15:03:21.453Z,81.5
2022-10-23T15:06:21.427Z,81.6
2022-10-23T15:09:21.452Z,81.8
2022-10-23T15:12:21.444Z,82
2022-10-23T15:15:21.457Z,82.2
2022-10-23T15:18:21.453Z,82.4
2022-10-23T15:21:21.487Z,82.5
2022-10-23T15:24:21.472Z,82.7
2022-10-23T15:27:21.475Z,82.9
2022-10-23T15:30:21.476Z,83.3
2022-10-23T15:33:21.483Z,83.5
2022-10-23T15:36:21.479Z,83.7
2022-10-23T15:39:21.519Z,83.9
2022-10-23T15:42:21.493Z,84.2
2022-10-23T15:45:21.502Z,84.3
2022-10-23T15:48:21.507Z,84.5
2022-10-23T15:51:21.514Z,84.8
2022-10-23T15:54:21.521Z,84.9
2022-10-23T15:57:21.555Z,84.8
2022-10-23T16:00:21.622Z,84.9
2022-10-23T16:03:21.540Z,84.9
2022-10-23T16:06:21.542Z,85.1
2022-10-23T16:09:21.548Z,85.3
2022-10-23T16:12:21.552Z,85.4
2022-10-23T16:15:21.589Z,85.6
2022-10-23T16:18:21.567Z,85.9
2022-10-23T16:21:21.572Z,85.9
2022-10-23T16:24:21.702Z,86
2022-10-23T16:27:21.577Z,86.1
2022-10-23T16:30:21.585Z,86.1
2022-10-23T16:33:21.624Z,86
2022-10-23T16:36:21.605Z,85.8
2022-10-23T16:39:21.606Z,85.7
2022-10-23T16:42:21.623Z,85.6
2022-10-23T16:45:21.627Z,85.6
2022-10-23T16:48:21.635Z,85.5
2022-10-23T16:51:21.662Z,85.4
2022-10-23T16:54:21.649Z,85.3
2022-10-23T16:57:21.655Z,85.3
2022-10-23T17:00:21.659Z,85.3
2022-10-23T17:03:21.675Z,85.3
2022-10-23T17:06:21.678Z,85.4
2022-10-23T17:09:21.702Z,85.6
2022-10-23T17:12:21.691Z,85.6
2022-10-23T17:15:21.699Z,85.6
2022-10-23T17:18:21.696Z,85.5
2022-10-23T17:21:21.699Z,85.4
2022-10-23T17:24:21.713Z,85.3
2022-10-23T17:27:21.752Z,85.3
2022-10-23T17:30:21.726Z,85.3
2022-10-23T17:33:21.737Z,85.3
2022-10-23T17:36:21.738Z,85.3
2022-10-23T17:39:21.744Z,85.4
2022-10-23T17:42:21.758Z,85.5
2022-10-23T17:45:21.791Z,85.5
2022-10-23T17:48:21.771Z,85.5
2022-10-23T17:51:21.774Z,85.6
2022-10-23T17:54:21.781Z,85.5
2022-10-23T18:00:21.797Z,85.7
2022-10-23T18:03:21.835Z,85.8
2022-10-23T18:06:23.322Z,85.9
2022-10-23T18:09:21.830Z,86.1
2022-10-23T18:12:21.838Z,86.2
2022-10-23T18:15:21.840Z,86.3
2022-10-23T18:18:21.847Z,86.2
2022-10-23T18:21:21.884Z,86.2
2022-10-23T18:24:21.859Z,86
2022-10-23T18:27:21.872Z,85.9
2022-10-23T18:30:21.879Z,85.7
2022-10-23T18:33:21.882Z,85.5
2022-10-23T18:36:21.893Z,85.3
2022-10-23T18:39:21.933Z,85.1
2022-10-23T18:42:21.909Z,84.8
2022-10-23T18:45:21.922Z,84.7
2022-10-23T18:48:21.934Z,84.4
2022-10-23T18:51:21.939Z,84.2
2022-10-23T18:54:21.954Z,84.1
2022-10-23T18:57:21.978Z,84
2022-10-23T19:00:21.969Z,83.9
2022-10-23T19:03:21.965Z,83.9
2022-10-23T19:06:21.979Z,84
2022-10-23T19:09:21.987Z,84.1
2022-10-23T19:12:22.000Z,84.3
2022-10-23T19:15:22.030Z,84.6
2022-10-23T19:18:22.011Z,85
2022-10-23T19:21:22.022Z,85.1
2022-10-23T19:24:22.041Z,85.5
2022-10-23T19:27:22.047Z,85.8
2022-10-23T19:30:22.752Z,86.1
2022-10-23T19:33:22.085Z,86.2
2022-10-23T19:36:23.333Z,86.1
2022-10-23T19:39:22.084Z,86.2
2022-10-23T19:42:22.095Z,86.5
2022-10-23T19:45:22.189Z,86.8
2022-10-23T19:48:22.114Z,87.2
2022-10-23T19:51:22.149Z,87.5
2022-10-23T19:54:22.146Z,87.9
2022-10-23T19:57:22.642Z,88.3
2022-10-23T20:00:22.152Z,88.9
2022-10-23T20:03:22.161Z,89.5
2022-10-23T20:06:22.163Z,90.2
2022-10-23T20:09:22.206Z,90.6
2022-10-23T20:12:22.193Z,91.1
2022-10-23T20:15:22.204Z,91.4
2022-10-23T20:18:22.213Z,91.7
2022-10-23T20:21:22.227Z,92
2022-10-23T20:24:22.235Z,92.2
2022-10-23T20:27:22.273Z,92.4
2022-10-23T20:30:22.252Z,92.6
2022-10-23T20:33:22.269Z,92.8
2022-10-23T20:36:22.283Z,93
2022-10-23T20:39:22.291Z,93.2
2022-10-23T20:42:22.301Z,93.3
2022-10-23T20:45:22.333Z,93.5
2022-10-23T20:48:22.319Z,93.7
2022-10-23T20:51:22.332Z,93.9
2022-10-23T20:54:22.347Z,94
2022-10-23T20:57:22.359Z,94.2
2022-10-23T21:00:22.412Z,94.3
2022-10-23T21:03:22.404Z,94.4
2022-10-23T21:06:22.400Z,94.5
2022-10-23T21:09:22.424Z,94.5
2022-10-23T21:12:22.423Z,94.5
2022-10-23T21:15:22.435Z,94.5
2022-10-23T21:18:33.921Z,94.5
2022-10-23T21:21:22.483Z,94.5
2022-10-23T21:24:22.465Z,94.6
2022-10-23T21:27:22.481Z,94.6
2022-10-23T21:30:22.497Z,94.7
2022-10-23T21:33:22.511Z,94.8
2022-10-23T21:36:22.517Z,94.9
2022-10-23T21:39:22.562Z,94.9
2022-10-23T21:42:22.572Z,94.9
2022-10-23T21:45:22.566Z,95
2022-10-23T21:48:22.576Z,95.1
2022-10-23T21:51:22.613Z,95.2
2022-10-23T21:54:22.602Z,95.3
2022-10-23T21:57:22.642Z,95.3
2022-10-23T22:00:22.630Z,95.5
2022-10-23T22:03:22.647Z,95.6
2022-10-23T22:06:22.659Z,95.7
2022-10-23T22:09:22.664Z,95.7
2022-10-23T22:12:22.680Z,95.7
2022-10-23T22:15:22.912Z,95.7
2022-10-23T22:18:22.699Z,95.8
2022-10-23T22:21:22.701Z,95.9
2022-10-23T22:24:22.706Z,96
2022-10-23T22:27:22.703Z,96.1
2022-10-23T22:30:22.706Z,96.1
2022-10-23T22:33:22.737Z,96.1
2022-10-23T22:36:22.714Z,96.1
2022-10-23T22:39:22.712Z,96
2022-10-23T22:42:22.713Z,96.1
2022-10-23T22:45:22.718Z,96.1
2022-10-23T22:48:22.720Z,96.2
2022-10-23T22:51:22.784Z,96.3
2022-10-23T22:54:22.732Z,96.4
2022-10-23T22:57:22.779Z,96.4
2022-10-23T23:00:22.735Z,96.5
2022-10-23T23:03:22.811Z,96.5
2022-10-23T23:06:22.735Z,96.6
2022-10-23T23:09:22.773Z,96.6
2022-10-23T23:12:22.734Z,96.6
2022-10-23T23:15:22.734Z,96.6
2022-10-23T23:18:22.744Z,96.7
2022-10-23T23:21:22.736Z,96.7
2022-10-23T23:24:22.748Z,96.7
2022-10-23T23:27:22.769Z,96.7
2022-10-23T23:30:22.737Z,96.7
2022-10-23T23:33:22.743Z,96.9
2022-10-23T23:36:22.748Z,97.1
2022-10-23T23:39:22.750Z,97.3
2022-10-23T23:42:22.752Z,97.4
2022-10-23T23:45:22.773Z,97.5
2022-10-23T23:48:22.762Z,97.5
2022-10-23T23:51:22.758Z,97.6
2022-10-23T23:54:22.756Z,97.6
2022-10-23T23:57:22.755Z,97.5
